Time;durP1;ratioP1;P1;durP2;ratioP2;P2;SDS_P1;SDS_P2;PMS_P1;PMS_P2;Temp;Humidity;BMP_temperature;BMP_pressure;BME280_temperature;BME280_humidity;BME280_pressure;Samples;Min_cycle;Max_cycle;Signal;HPM_P1;HPM_P2
2022/08/24 00:02:00;;;;;;;4.20;1.73;;;;;;;;;;10450613;28;20068;-50
2022/08/24 00:07:01;;;;;;;6.60;1.70;;;;;;;;;;10449344;28;20060;-52
2022/08/24 00:12:03;;;;;;;4.47;1.58;;;;;;;;;;10442533;28;20040;-48
2022/08/24 00:17:05;;;;;;;5.30;1.60;;;;;;;;;;10483902;28;20043;-57
2022/08/24 00:22:06;;;;;;;8.23;1.60;;;;;;;;;;10468340;28;20078;-57
2022/08/24 00:27:07;;;;;;;3.05;1.40;;;;;;;;;;10480489;28;20416;-51
2022/08/24 00:32:07;;;;;;;3.13;1.50;;;;;;;;;;10452304;28;20028;-49
2022/08/24 00:37:08;;;;;;;4.22;1.33;;;;;;;;;;10456608;28;20028;-52
2022/08/24 00:42:09;;;;;;;4.47;1.42;;;;;;;;;;10456330;28;20081;-51
2022/08/24 00:47:26;;;;;;;4.18;1.70;;;;;;;;;;10444992;28;20037;-54
2022/08/24 00:52:33;;;;;;;4.97;1.33;;;;;;;;;;10440639;28;20476;-49
2022/08/24 00:57:40;;;;;;;5.03;1.40;;;;;;;;;;10430918;28;20503;-50
2022/08/24 01:02:47;;;;;;;3.05;1.63;;;;;;;;;;10453297;28;20040;-55
2022/08/24 01:07:49;;;;;;;2.90;1.52;;;;;;;;;;10441828;28;20136;-54
2022/08/24 01:12:54;;;;;;;2.17;1.20;;;;;;;;;;10450758;28;20045;-56
2022/08/24 01:23:37;;;;;;;7.63;2.20;;;;;;;;;;10473372;28;20036;-56
2022/08/24 01:28:41;;;;;;;3.10;1.40;;;;;;;;;;10443765;28;20025;-55
2022/08/24 01:33:42;;;;;;;1.90;1.08;;;;;;;;;;10453580;28;20044;-57
2022/08/24 01:38:45;;;;;;;2.60;1.15;;;;;;;;;;10450539;28;20476;-54
2022/08/24 01:43:46;;;;;;;3.33;1.45;;;;;;;;;;10471938;28;20041;-56
2022/08/24 01:48:46;;;;;;;3.35;1.30;;;;;;;;;;10452823;28;20025;-53
2022/08/24 01:53:48;;;;;;;5.68;1.45;;;;;;;;;;10447824;28;20044;-52
2022/08/24 01:58:48;;;;;;;2.33;1.42;;;;;;;;;;10439795;28;20488;-57
2022/08/24 02:03:49;;;;;;;1.95;1.27;;;;;;;;;;10452273;28;20115;-53
2022/08/24 02:08:49;;;;;;;6.65;1.20;;;;;;;;;;10451933;28;20112;-55
2022/08/24 02:13:50;;;;;;;1.75;1.20;;;;;;;;;;10441762;28;20021;-54
2022/08/24 02:18:51;;;;;;;2.30;1.00;;;;;;;;;;10450778;28;20082;-49
2022/08/24 02:23:51;;;;;;;4.35;1.20;;;;;;;;;;10451868;28;20090;-51
2022/08/24 02:28:53;;;;;;;2.05;1.35;;;;;;;;;;10445256;28;20037;-53
2022/08/24 02:33:53;;;;;;;3.95;1.33;;;;;;;;;;10465648;28;20082;-49
2022/08/24 02:38:55;;;;;;;2.58;1.30;;;;;;;;;;10464279;28;20092;-56
2022/08/24 02:43:56;;;;;;;2.35;1.23;;;;;;;;;;10471943;28;20024;-57
2022/08/24 02:48:58;;;;;;;1.75;1.27;;;;;;;;;;10464198;28;20626;-56
2022/08/24 02:54:01;;;;;;;2.45;1.25;;;;;;;;;;10442315;28;20401;-51
2022/08/24 02:59:02;;;;;;;3.63;1.20;;;;;;;;;;10459349;28;20017;-53
2022/08/24 03:04:03;;;;;;;2.83;1.30;;;;;;;;;;10448878;28;20064;-53
2022/08/24 03:09:05;;;;;;;15.18;1.23;;;;;;;;;;10477358;22;20568;-48
2022/08/24 03:14:07;;;;;;;1.48;1.20;;;;;;;;;;10493243;28;20047;-48
2022/08/24 03:19:07;;;;;;;4.55;1.30;;;;;;;;;;10485990;28;20025;-47
2022/08/24 03:24:08;;;;;;;1.30;1.13;;;;;;;;;;10486018;28;20033;-48
2022/08/24 03:29:09;;;;;;;1.45;1.08;;;;;;;;;;10478421;28;20029;-48
2022/08/24 03:34:12;;;;;;;3.03;1.23;;;;;;;;;;10471697;28;20047;-50
2022/08/24 03:39:14;;;;;;;0.88;0.88;;;;;;;;;;10487920;28;20468;-51
2022/08/24 03:44:15;;;;;;;1.48;1.35;;;;;;;;;;10471041;28;20400;-47
2022/08/24 03:49:16;;;;;;;2.05;1.02;;;;;;;;;;10480158;28;20040;-49
2022/08/24 03:54:16;;;;;;;1.33;1.10;;;;;;;;;;10479415;28;20044;-50
2022/08/24 03:59:17;;;;;;;1.15;1.05;;;;;;;;;;10475316;28;20111;-48
2022/08/24 04:04:18;;;;;;;2.15;1.35;;;;;;;;;;10483011;28;20104;-53
2022/08/24 04:09:19;;;;;;;2.00;1.02;;;;;;;;;;10487491;28;20040;-46
2022/08/24 04:14:19;;;;;;;1.58;1.13;;;;;;;;;;10489221;28;20020;-50
2022/08/24 04:19:20;;;;;;;10.85;1.27;;;;;;;;;;10481295;28;20024;-49
2022/08/24 04:24:21;;;;;;;1.35;1.10;;;;;;;;;;10474993;28;20445;-53
2022/08/24 04:29:22;;;;;;;2.78;1.10;;;;;;;;;;10478228;28;20051;-52
2022/08/24 04:34:23;;;;;;;2.35;1.17;;;;;;;;;;10479065;28;20032;-53
2022/08/24 04:39:24;;;;;;;6.47;1.48;;;;;;;;;;10466804;28;20051;-58
2022/08/24 04:44:25;;;;;;;1.17;1.00;;;;;;;;;;10473709;28;20028;-58
2022/08/24 04:49:26;;;;;;;2.17;1.10;;;;;;;;;;10489098;28;20028;-56
2022/08/24 04:54:26;;;;;;;4.20;1.42;;;;;;;;;;10472119;28;20199;-51
2022/08/24 04:59:27;;;;;;;2.17;1.42;;;;;;;;;;10467482;28;20176;-58
2022/08/24 05:04:28;;;;;;;5.72;1.50;;;;;;;;;;10480850;28;20380;-57
2022/08/24 05:09:28;;;;;;;1.33;1.17;;;;;;;;;;10476198;28;20105;-55
2022/08/24 05:14:29;;;;;;;1.73;1.10;;;;;;;;;;10464260;28;20072;-58
2022/08/24 05:19:30;;;;;;;2.33;1.20;;;;;;;;;;10473328;28;20070;-56
2022/08/24 05:24:30;;;;;;;9.23;1.80;;;;;;;;;;10463590;28;20025;-50
2022/08/24 05:29:33;;;;;;;25.92;2.20;;;;;;;;;;10484333;28;20037;-53
2022/08/24 05:34:34;;;;;;;6.82;1.85;;;;;;;;;;10452352;28;20094;-53
2022/08/24 05:39:34;;;;;;;6.75;1.60;;;;;;;;;;10466585;28;20035;-57
2022/08/24 05:44:35;;;;;;;6.35;2.05;;;;;;;;;;10479182;28;20384;-51
2022/08/24 05:49:36;;;;;;;2.80;1.80;;;;;;;;;;10480643;28;20038;-58
2022/08/24 05:54:36;;;;;;;3.95;1.83;;;;;;;;;;10477642;28;20442;-57
2022/08/24 05:59:37;;;;;;;4.03;1.67;;;;;;;;;;10474701;28;20032;-58
2022/08/24 06:04:38;;;;;;;2.33;1.67;;;;;;;;;;10479921;28;20028;-56
2022/08/24 06:09:39;;;;;;;4.28;1.60;;;;;;;;;;10463661;28;20498;-50
2022/08/24 06:14:43;;;;;;;2.83;1.50;;;;;;;;;;10465574;28;20087;-51
2022/08/24 06:19:44;;;;;;;3.67;1.65;;;;;;;;;;10483530;28;20039;-52
2022/08/24 06:30:08;;;;;;;2.10;1.48;;;;;;;;;;10494428;28;20495;-51
2022/08/24 06:35:09;;;;;;;2.22;1.15;;;;;;;;;;10491834;28;20048;-54
2022/08/24 06:40:10;;;;;;;3.42;1.60;;;;;;;;;;10493543;28;20035;-52
2022/08/24 06:45:11;;;;;;;3.00;1.30;;;;;;;;;;10494001;28;20520;-52
2022/08/24 06:50:12;;;;;;;3.60;1.60;;;;;;;;;;10494180;28;20056;-52
2022/08/24 06:55:13;;;;;;;2.33;1.30;;;;;;;;;;10494462;28;20024;-52
2022/08/24 07:00:14;;;;;;;2.85;1.63;;;;;;;;;;10492981;28;20475;-54
2022/08/24 07:05:15;;;;;;;2.88;1.60;;;;;;;;;;10491219;28;20097;-54
2022/08/24 07:10:15;;;;;;;2.60;1.45;;;;;;;;;;10482302;28;20102;-53
2022/08/24 07:15:18;;;;;;;3.03;1.20;;;;;;;;;;10486857;28;20054;-51
2022/08/24 07:20:18;;;;;;;1.88;1.20;;;;;;;;;;10486167;28;20529;-51
2022/08/24 07:25:19;;;;;;;5.22;1.30;;;;;;;;;;10475313;28;20021;-52
2022/08/24 07:30:20;;;;;;;2.15;1.35;;;;;;;;;;10473240;28;20484;-55
2022/08/24 07:35:21;;;;;;;1.80;1.52;;;;;;;;;;10478999;28;20025;-53
2022/08/24 07:40:24;;;;;;;4.90;1.40;;;;;;;;;;10469215;28;20028;-53
2022/08/24 07:45:25;;;;;;;1.45;1.23;;;;;;;;;;10478947;28;20437;-54
2022/08/24 07:50:26;;;;;;;1.90;1.20;;;;;;;;;;10483484;28;20335;-51
2022/08/24 07:55:28;;;;;;;1.90;1.55;;;;;;;;;;10477220;28;20305;-51
2022/08/24 08:00:28;;;;;;;1.70;1.25;;;;;;;;;;10478519;28;20032;-54
2022/08/24 08:05:29;;;;;;;1.92;1.05;;;;;;;;;;10472455;28;20569;-54
2022/08/24 08:10:30;;;;;;;3.47;1.30;;;;;;;;;;10485890;28;20041;-53
2022/08/24 08:15:30;;;;;;;2.45;1.40;;;;;;;;;;10489316;28;20029;-55
2022/08/24 08:20:31;;;;;;;2.55;1.40;;;;;;;;;;10486228;28;20021;-56
2022/08/24 08:25:32;;;;;;;2.55;1.30;;;;;;;;;;10490827;28;20139;-55
2022/08/24 08:30:32;;;;;;;5.28;1.45;;;;;;;;;;10489830;28;20024;-54
2022/08/24 08:35:33;;;;;;;4.43;1.40;;;;;;;;;;10490093;28;20029;-54
2022/08/24 08:41:06;;;;;;;5.63;1.30;;;;;;;;;;10489359;28;20021;-53
2022/08/24 08:46:52;;;;;;;1.63;1.20;;;;;;;;;;10488202;28;20541;-52
2022/08/24 08:52:25;;;;;;;4.40;1.43;;;;;;;;;;10477330;28;20052;-54
2022/08/24 08:58:10;;;;;;;2.28;1.38;;;;;;;;;;10481854;28;20446;-52
2022/08/24 09:04:00;;;;;;;4.40;1.08;;;;;;;;;;10472894;28;20119;-52
2022/08/24 09:09:40;;;;;;;5.88;1.45;;;;;;;;;;10481035;28;20033;-55
2022/08/24 09:15:28;;;;;;;3.10;1.10;;;;;;;;;;10484592;28;20241;-55
2022/08/24 09:21:13;;;;;;;2.95;1.55;;;;;;;;;;10477206;28;20407;-53
2022/08/24 09:26:47;;;;;;;2.10;1.20;;;;;;;;;;10482746;28;20057;-54
2022/08/24 09:32:22;;;;;;;2.53;1.33;;;;;;;;;;10477597;28;20123;-52
2022/08/24 09:37:52;;;;;;;3.20;1.17;;;;;;;;;;10478906;28;20040;-54
2022/08/24 09:43:20;;;;;;;1.50;0.90;;;;;;;;;;10459296;28;20056;-53
2022/08/24 09:48:23;;;;;;;;;;;;;;;;;;10483592;28;20090;-54
2022/08/24 09:53:54;;;;;;;1.83;1.10;;;;;;;;;;10477774;28;19927;-55
2022/08/24 09:59:18;;;;;;;1.83;1.30;;;;;;;;;;10484041;28;20040;-54
2022/08/24 10:04:27;;;;;;;2.33;1.30;;;;;;;;;;10483321;28;20032;-55
2022/08/24 10:09:50;;;;;;;2.15;1.00;;;;;;;;;;10493436;28;20485;-55
2022/08/24 10:15:08;;;;;;;1.83;1.17;;;;;;;;;;10493314;28;20488;-54
2022/08/24 10:20:24;;;;;;;3.72;1.20;;;;;;;;;;10480347;28;20024;-56
2022/08/24 10:25:39;;;;;;;2.17;1.10;;;;;;;;;;10495116;28;20556;-52
2022/08/24 10:31:02;;;;;;;2.22;1.17;;;;;;;;;;10505652;28;20028;-54
2022/08/24 10:36:16;;;;;;;1.35;1.05;;;;;;;;;;10497861;28;20033;-54
2022/08/24 10:41:37;;;;;;;2.65;1.33;;;;;;;;;;10477882;28;20023;-54
2022/08/24 10:46:52;;;;;;;2.15;1.10;;;;;;;;;;10489507;28;20063;-53
2022/08/24 10:52:37;;;;;;;1.10;1.05;;;;;;;;;;10490026;28;20036;-55
2022/08/24 10:58:28;;;;;;;1.67;1.10;;;;;;;;;;10479477;28;20045;-54
2022/08/24 11:03:29;;;;;;;2.30;1.20;;;;;;;;;;10444791;28;20036;-56
2022/08/24 11:08:34;;;;;;;1.63;1.40;;;;;;;;;;10484692;28;20044;-55
2022/08/24 11:13:36;;;;;;;2.10;0.93;;;;;;;;;;10484328;28;20278;-55
2022/08/24 11:18:51;;;;;;;1.83;1.23;;;;;;;;;;10481599;28;20062;-59
2022/08/24 11:23:51;;;;;;;1.33;1.00;;;;;;;;;;10476825;28;20116;-56
2022/08/24 11:28:59;;;;;;;3.97;1.02;;;;;;;;;;10486149;28;20035;-55
2022/08/24 11:34:33;;;;;;;1.67;1.15;;;;;;;;;;10490205;28;20336;-52
2022/08/24 11:39:36;;;;;;;1.00;0.90;;;;;;;;;;10485580;28;20029;-55
2022/08/24 11:44:45;;;;;;;2.00;1.00;;;;;;;;;;10490688;28;20116;-53
2022/08/24 11:50:25;;;;;;;2.22;1.30;;;;;;;;;;10489845;28;20078;-56
2022/08/24 11:55:55;;;;;;;1.10;1.00;;;;;;;;;;10490211;28;20042;-53
2022/08/24 12:01:24;;;;;;;0.93;0.90;;;;;;;;;;10484234;28;20037;-54
2022/08/24 12:06:55;;;;;;;1.55;0.90;;;;;;;;;;10478994;28;20462;-55
2022/08/24 12:12:13;;;;;;;3.63;1.20;;;;;;;;;;10490701;28;20231;-55
2022/08/24 12:17:26;;;;;;;2.85;1.25;;;;;;;;;;10490879;28;20298;-56
2022/08/24 12:22:27;;;;;;;2.58;1.10;;;;;;;;;;10489237;28;20020;-54
2022/08/24 12:27:33;;;;;;;1.10;1.00;;;;;;;;;;10489440;28;20103;-53
2022/08/24 12:33:00;;;;;;;1.25;0.90;;;;;;;;;;10482640;28;20050;-55
2022/08/24 12:38:20;;;;;;;2.47;1.00;;;;;;;;;;10490797;28;20047;-56
2022/08/24 12:43:31;;;;;;;2.53;1.00;;;;;;;;;;10490314;28;20024;-54
2022/08/24 12:48:43;;;;;;;2.05;1.00;;;;;;;;;;10487508;28;20089;-54
2022/08/24 12:54:13;;;;;;;1.35;0.98;;;;;;;;;;10488332;28;20464;-52
2022/08/24 12:59:35;;;;;;;1.63;1.10;;;;;;;;;;10471845;28;20032;-55
2022/08/24 13:04:53;;;;;;;2.25;1.00;;;;;;;;;;10474087;28;20432;-55
2022/08/24 13:09:56;;;;;;;1.00;0.90;;;;;;;;;;10478329;28;20032;-56
2022/08/24 13:15:25;;;;;;;1.60;1.00;;;;;;;;;;10474281;28;20032;-53
2022/08/24 13:20:33;;;;;;;2.15;1.10;;;;;;;;;;10477853;28;20028;-55
2022/08/24 13:25:57;;;;;;;1.60;0.88;;;;;;;;;;10485278;28;20032;-54
2022/08/24 13:31:04;;;;;;;1.35;0.90;;;;;;;;;;10484904;28;20036;-56
2022/08/24 13:36:27;;;;;;;6.07;1.37;;;;;;;;;;10487330;28;20032;-56
2022/08/24 13:41:45;;;;;;;1.73;1.08;;;;;;;;;;10481358;28;20423;-53
2022/08/24 13:47:29;;;;;;;2.38;1.10;;;;;;;;;;10475893;28;20039;-54
2022/08/24 13:52:54;;;;;;;1.02;0.88;;;;;;;;;;10475474;28;20036;-56
2022/08/24 13:58:13;;;;;;;4.57;1.13;;;;;;;;;;10483849;28;20102;-54
2022/08/24 14:03:20;;;;;;;1.40;1.00;;;;;;;;;;10473766;28;20278;-56
2022/08/24 14:08:32;;;;;;;1.58;1.20;;;;;;;;;;10474516;28;20049;-56
2022/08/24 14:13:46;;;;;;;1.38;0.80;;;;;;;;;;10460580;28;20405;-55
2022/08/24 14:19:27;;;;;;;1.52;1.05;;;;;;;;;;10479645;28;20502;-53
2022/08/24 14:24:41;;;;;;;1.92;1.00;;;;;;;;;;10477105;28;20033;-55
2022/08/24 14:29:44;;;;;;;1.00;0.90;;;;;;;;;;10484778;28;20036;-56
2022/08/24 14:35:45;;;;;;;1.17;0.90;;;;;;;;;;10474000;28;20489;-55
2022/08/24 14:41:15;;;;;;;0.90;0.90;;;;;;;;;;10441914;28;20095;-52
2022/08/24 14:46:48;;;;;;;1.65;1.00;;;;;;;;;;10433096;28;20037;-55
2022/08/24 14:51:54;;;;;;;2.45;0.90;;;;;;;;;;10429730;28;20036;-56
2022/08/24 14:57:14;;;;;;;1.70;0.98;;;;;;;;;;10434859;28;20389;-53
2022/08/24 15:03:00;;;;;;;1.58;1.00;;;;;;;;;;10410168;28;20093;-53
2022/08/24 15:08:10;;;;;;;2.20;1.00;;;;;;;;;;10436881;28;20047;-54
2022/08/24 15:13:19;;;;;;;1.20;0.90;;;;;;;;;;10476382;28;20028;-53
2022/08/24 15:18:40;;;;;;;2.92;1.55;;;;;;;;;;10486343;28;20100;-53
2022/08/24 15:24:28;;;;;;;1.70;0.90;;;;;;;;;;10488021;28;20389;-54
2022/08/24 15:29:33;;;;;;;0.95;0.90;;;;;;;;;;10483743;28;20119;-49
2022/08/24 15:34:51;;;;;;;1.88;1.00;;;;;;;;;;10482574;28;20074;-54
2022/08/24 15:39:52;;;;;;;3.42;1.10;;;;;;;;;;10474485;28;20029;-55
2022/08/24 15:44:53;;;;;;;1.73;0.93;;;;;;;;;;10468808;28;20072;-50
2022/08/24 15:50:26;;;;;;;2.08;1.10;;;;;;;;;;10472348;28;20024;-52
2022/08/24 15:55:42;;;;;;;0.90;0.90;;;;;;;;;;10476670;28;20049;-56
2022/08/24 16:06:27;;;;;;;1.75;0.90;;;;;;;;;;10473652;28;20024;-55
2022/08/24 16:11:40;;;;;;;1.38;0.90;;;;;;;;;;10469932;28;20095;-55
2022/08/24 16:16:44;;;;;;;5.18;1.05;;;;;;;;;;10477453;28;20075;-56
2022/08/24 16:22:23;;;;;;;1.38;0.90;;;;;;;;;;10490954;28;20028;-54
2022/08/24 16:28:06;;;;;;;2.17;0.93;;;;;;;;;;10481389;28;20232;-57
2022/08/24 16:33:08;;;;;;;4.53;1.10;;;;;;;;;;10478618;28;20036;-56
2022/08/24 16:38:09;;;;;;;1.88;1.10;;;;;;;;;;10477709;28;20028;-55
2022/08/24 16:43:09;;;;;;;3.30;0.90;;;;;;;;;;10474625;28;20025;-54
2022/08/24 16:48:10;;;;;;;1.05;0.73;;;;;;;;;;10490931;28;20074;-56
2022/08/24 16:53:10;;;;;;;3.08;1.10;;;;;;;;;;10475313;28;20028;-54
2022/08/24 16:58:11;;;;;;;2.05;1.10;;;;;;;;;;10473448;28;20054;-54
2022/08/24 17:03:12;;;;;;;3.85;0.93;;;;;;;;;;10463082;28;20036;-55
2022/08/24 17:08:13;;;;;;;1.30;0.90;;;;;;;;;;10476200;28;20043;-55
2022/08/24 17:13:13;;;;;;;0.77;0.70;;;;;;;;;;10489493;28;20035;-56
2022/08/24 17:18:18;;;;;;;3.42;0.90;;;;;;;;;;10477942;28;20021;-56
2022/08/24 17:23:19;;;;;;;1.67;1.10;;;;;;;;;;10453945;28;20046;-54
2022/08/24 17:28:20;;;;;;;2.08;1.00;;;;;;;;;;10462191;28;20030;-54
2022/08/24 17:33:20;;;;;;;1.58;0.93;;;;;;;;;;10455005;28;20048;-54
2022/08/24 17:38:21;;;;;;;1.10;0.95;;;;;;;;;;10481464;28;20028;-55
2022/08/24 17:43:23;;;;;;;0.63;0.63;;;;;;;;;;10487029;28;20437;-56
2022/08/24 17:48:25;;;;;;;1.17;0.98;;;;;;;;;;10489576;28;20417;-56
2022/08/24 17:53:26;;;;;;;1.27;1.00;;;;;;;;;;10481635;28;20036;-54
2022/08/24 17:58:27;;;;;;;0.73;0.73;;;;;;;;;;10487064;28;20032;-55
2022/08/24 18:03:28;;;;;;;1.00;0.90;;;;;;;;;;10472616;28;20059;-60
2022/08/24 18:08:28;;;;;;;2.03;1.00;;;;;;;;;;10473690;28;20396;-60
2022/08/24 18:13:29;;;;;;;2.83;0.90;;;;;;;;;;10476759;28;20063;-60
2022/08/24 18:18:30;;;;;;;2.00;0.90;;;;;;;;;;10494641;28;20039;-60
2022/08/24 18:23:30;;;;;;;1.02;0.90;;;;;;;;;;10495467;28;20476;-60
2022/08/24 18:28:31;;;;;;;2.40;1.10;;;;;;;;;;10496667;28;20540;-60
2022/08/24 18:33:31;;;;;;;4.10;0.98;;;;;;;;;;10476152;28;20028;-60
2022/08/24 18:38:33;;;;;;;2.22;1.40;;;;;;;;;;10495604;28;20036;-60
2022/08/24 18:43:33;;;;;;;5.97;1.30;;;;;;;;;;10487037;28;20099;-60
2022/08/24 18:48:35;;;;;;;1.50;1.00;;;;;;;;;;10492645;28;20495;-60
2022/08/24 18:53:35;;;;;;;5.13;1.30;;;;;;;;;;10469869;28;20033;-60
2022/08/24 18:58:36;;;;;;;2.25;1.17;;;;;;;;;;10477716;28;20488;-60
2022/08/24 19:03:36;;;;;;;4.43;1.63;;;;;;;;;;10482827;28;20403;-60
2022/08/24 19:08:37;;;;;;;5.75;2.00;;;;;;;;;;10482164;28;20124;-60
2022/08/24 19:13:38;;;;;;;4.45;2.28;;;;;;;;;;10488797;28;20400;-60
2022/08/24 19:18:39;;;;;;;6.35;2.60;;;;;;;;;;10478176;28;20055;-59
2022/08/24 19:23:40;;;;;;;7.95;3.40;;;;;;;;;;10485551;28;20550;-59
2022/08/24 19:28:41;;;;;;;8.70;4.82;;;;;;;;;;10462034;28;20029;-58
2022/08/24 19:33:45;;;;;;;9.82;3.55;;;;;;;;;;10470024;28;20582;-59
2022/08/24 19:38:46;;;;;;;6.00;3.20;;;;;;;;;;10463535;28;20051;-59
2022/08/24 19:49:19;;;;;;;6.32;2.38;;;;;;;;;;10462092;28;20033;-59
2022/08/24 19:54:20;;;;;;;4.03;2.00;;;;;;;;;;10468498;28;20463;-59
2022/08/24 19:59:31;;;;;;;3.60;2.20;;;;;;;;;;10467883;28;20032;-59
2022/08/24 20:04:32;;;;;;;14.15;2.22;;;;;;;;;;10472187;28;20111;-59
2022/08/24 20:09:32;;;;;;;3.13;2.13;;;;;;;;;;10467613;28;20029;-59
2022/08/24 20:14:34;;;;;;;4.93;2.05;;;;;;;;;;10472535;28;20090;-59
2022/08/24 20:19:37;;;;;;;2.40;1.90;;;;;;;;;;10472095;28;20495;-60
2022/08/24 20:24:38;;;;;;;4.70;1.80;;;;;;;;;;10463070;28;20029;-59
2022/08/24 20:29:44;;;;;;;3.05;1.85;;;;;;;;;;10463058;28;20396;-59
2022/08/24 20:34:52;;;;;;;2.90;1.90;;;;;;;;;;10476599;28;20028;-59
2022/08/24 20:39:56;;;;;;;6.38;2.10;;;;;;;;;;10479222;28;20528;-59
2022/08/24 20:44:58;;;;;;;9.98;2.10;;;;;;;;;;10457918;28;20247;-59
2022/08/24 20:49:59;;;;;;;3.55;2.40;;;;;;;;;;10472851;28;20036;-59
2022/08/24 20:55:10;;;;;;;3.28;1.92;;;;;;;;;;10468736;28;20495;-59
2022/08/24 21:00:18;;;;;;;6.57;2.30;;;;;;;;;;10461669;28;20469;-59
2022/08/24 21:05:21;;;;;;;4.50;2.20;;;;;;;;;;10461343;28;20031;-59
2022/08/24 21:10:23;;;;;;;4.28;2.42;;;;;;;;;;10467555;28;20417;-59
2022/08/24 21:15:23;;;;;;;6.30;2.25;;;;;;;;;;10485554;28;20032;-59
2022/08/24 21:20:24;;;;;;;7.57;2.83;;;;;;;;;;10486268;28;20431;-59
2022/08/24 21:25:26;;;;;;;3.78;2.40;;;;;;;;;;10476832;28;20058;-59
2022/08/24 21:30:27;;;;;;;4.10;2.00;;;;;;;;;;10473631;28;20044;-59
2022/08/24 21:35:28;;;;;;;6.05;2.00;;;;;;;;;;10470476;28;20021;-59
2022/08/24 21:40:29;;;;;;;4.75;2.05;;;;;;;;;;10470614;28;20442;-59
2022/08/24 21:45:31;;;;;;;4.40;2.00;;;;;;;;;;10482176;28;20027;-59
2022/08/24 21:50:32;;;;;;;6.50;2.28;;;;;;;;;;10481782;28;20016;-59
2022/08/24 21:55:32;;;;;;;8.88;2.17;;;;;;;;;;10482214;28;20565;-59
2022/08/24 22:00:34;;;;;;;3.42;2.22;;;;;;;;;;10477882;28;20449;-59
2022/08/24 22:05:35;;;;;;;2.03;1.85;;;;;;;;;;10485257;28;20699;-58
2022/08/24 22:10:36;;;;;;;4.75;1.92;;;;;;;;;;10486830;28;20294;-59
2022/08/24 22:15:36;;;;;;;3.80;2.03;;;;;;;;;;10479560;28;20094;-59
2022/08/24 22:20:37;;;;;;;2.60;2.05;;;;;;;;;;10490218;28;20089;-59
2022/08/24 22:25:38;;;;;;;8.15;2.50;;;;;;;;;;10477540;28;20069;-59
2022/08/24 22:30:39;;;;;;;3.65;2.38;;;;;;;;;;10481818;28;20047;-59
2022/08/24 22:35:41;;;;;;;2.47;1.85;;;;;;;;;;10467846;28;20040;-58
2022/08/24 22:40:43;;;;;;;4.15;2.20;;;;;;;;;;10480953;28;20078;-59
2022/08/24 22:45:43;;;;;;;4.55;2.10;;;;;;;;;;10480860;28;20064;-59
2022/08/24 22:50:45;;;;;;;3.42;2.13;;;;;;;;;;10490806;28;20041;-59
2022/08/24 22:55:45;;;;;;;1.67;1.58;;;;;;;;;;10489011;28;20117;-59
2022/08/24 23:00:46;;;;;;;4.45;2.50;;;;;;;;;;10490426;28;20549;-59
2022/08/24 23:05:47;;;;;;;4.88;1.85;;;;;;;;;;10485462;28;20476;-49
2022/08/24 23:10:49;;;;;;;4.85;1.58;;;;;;;;;;10470329;28;20052;-49
2022/08/24 23:15:50;;;;;;;7.25;2.22;;;;;;;;;;10474085;28;20154;-48
2022/08/24 23:20:50;;;;;;;5.20;2.00;;;;;;;;;;10479179;28;20162;-49
2022/08/24 23:25:51;;;;;;;3.72;1.83;;;;;;;;;;10476901;28;20477;-48
2022/08/24 23:30:52;;;;;;;3.92;2.30;;;;;;;;;;10474600;28;20035;-53
2022/08/24 23:35:52;;;;;;;4.53;2.00;;;;;;;;;;10473586;28;20028;-49
2022/08/24 23:40:53;;;;;;;4.30;1.85;;;;;;;;;;10477593;28;20035;-50
2022/08/24 23:45:53;;;;;;;18.02;1.92;;;;;;;;;;10489024;28;20025;-51
2022/08/24 23:50:55;;;;;;;6.85;1.80;;;;;;;;;;10487566;28;20043;-51
2022/08/24 23:56:07;;;;;;;4.07;1.77;;;;;;;;;;10487893;28;20492;-50
